Latest Weather Observations for Roebourne Airport

IDW60801

Issued at 1:13 pm WST Tuesday 10 December 2019 (issued every 10 minutes, with the page automatically refreshed every 10 minutes)

About weather observations | Map of weather stations | Latest weather observations for WA | Other Formats
Station Details ID: 004090 Name: ROEBOURNE AERO Lat: -20.76 Lon: 117.16 Height: 10.7 m
Data from the previous 72 hours. | See also: Recent months at Roebourne Airport
Date/Time
WST
Temp
°C
App
Temp
°C
Dew
Point
°C
Rel
Hum
%
Delta-T
°C
Wind Press
QNH
hPa
Press
MSL
hPa
Rain since
9am
mm
Dir  Spd
km/h
Gust
km/h
Spd
kts
Gust
kts
10/01:00pm 39.2 35.1 17.3 27 14.3 NW 35 44 19 24 1007.0 1007.0 0.0
10/12:30pm 38.7 35.3 19.0 31 13.1 NW 35 44 19 24 1007.0 1007.0 0.0
10/12:00pm 42.0 38.1 14.4 20 17.5 NW 28 39 15 21 1007.0 1007.0 0.0
10/11:30am 41.5 39.4 16.2 23 16.3 WNW 22 32 12 17 1007.1 1007.1 0.0
10/11:00am 40.6 38.6 15.4 22 16.1 WNW 20 30 11 16 1007.3 1007.3 0.0
10/10:30am 40.9 37.5 9.2 15 18.6 WNW 17 26 9 14 1007.7 1007.7 0.0
10/10:00am 39.6 36.6 9.1 16 17.8 W 15 24 8 13 1008.0 1008.0 0.0
10/09:30am 38.8 35.3 10.2 18 16.9 W 19 24 10 13 1007.7 1007.7 0.0
10/09:00am 37.1 34.5 13.2 24 14.6 W 19 28 10 15 1007.8 1007.8 0.0
10/08:30am 34.5 32.9 14.9 31 12.2 SW 17 20 9 11 1007.9 1007.9 0.0
10/08:00am 33.0 32.3 15.5 35 10.9 SW 13 17 7 9 1008.3 1008.3 0.0
10/07:30am 31.2 31.0 16.8 42 9.1 SW 13 20 7 11 1008.4 1008.4 0.0
10/07:00am 29.0 27.4 17.5 49 7.3 W 22 28 12 15 1007.5 1007.5 0.0
10/06:30am 27.4 26.3 17.8 55 6.1 WNW 20 26 11 14 1007.5 1007.5 0.0
10/06:00am 25.6 25.3 17.3 60 5.2 WNW 15 17 8 9 1007.4 1007.4 0.0
10/05:30am 25.2 24.7 15.8 56 5.7 W 13 15 7 8 1007.1 1007.1 0.0
10/05:00am 25.1 23.9 13.9 49 6.6 WNW 13 15 7 8 1007.0 1007.0 0.0
10/04:30am 25.9 25.6 12.7 44 7.7 WNW 6 11 3 6 1006.8 1006.8 0.0
10/04:00am 26.7 26.1 12.4 41 8.3 WSW 7 11 4 6 1006.6 1006.6 0.0
10/03:30am 28.0 25.9 12.4 38 9.1 WSW 15 22 8 12 1006.3 1006.3 0.0
10/03:00am 28.0 25.0 12.0 37 9.3 WSW 19 24 10 13 1006.2 1006.2 0.0
10/02:30am 28.2 24.8 10.4 33 10.0 WSW 19 24 10 13 1006.5 1006.5 0.0
10/02:00am 28.7 24.8 9.4 30 10.8 WSW 20 28 11 15 1006.6 1006.6 0.0
10/01:30am 28.5 24.7 9.7 31 10.5 WSW 20 26 11 14 1006.9 1006.9 0.0
10/01:00am 28.8 25.4 10.5 32 10.4 WSW 19 24 10 13 1007.3 1007.3 0.0
10/12:30am 28.7 25.5 11.3 34 10.0 WSW 19 22 10 12 1007.6 1007.6 0.0
10/12:00am 29.2 25.2 11.7 34 10.2 WSW 24 32 13 17 1007.9 1007.9 0.0
 
Date/Time
WST
Temp
°C
App
Temp
°C
Dew
Point
°C
Rel
Hum
%
Delta-T
°C
Wind Press
QNH
hPa
Press
MSL
hPa
Rain since
9am
mm
Dir  Spd
km/h
Gust
km/h
Spd
kts
Gust
kts
09/11:30pm 29.4 26.4 13.6 38 9.4 WSW 22 33 12 18 1008.0 1008.0 0.0
09/11:00pm 29.5 26.5 14.9 41 8.9 W 24 33 13 18 1008.2 1008.2 0.0
09/10:30pm 29.7 26.8 15.0 40 9.0 W 24 35 13 19 1008.3 1008.3 0.0
09/10:00pm 29.9 27.0 15.2 41 9.0 W 24 32 13 17 1008.3 1008.3 0.0
09/09:30pm 30.2 26.8 15.9 42 8.9 W 28 39 15 21 1008.1 1008.1 0.0
09/09:00pm 30.1 29.2 18.2 49 7.6 W 20 26 11 14 1008.0 1008.0 0.0
09/08:30pm 30.5 28.5 18.2 47 7.9 W 26 33 14 18 1007.7 1007.7 0.0
09/08:00pm 31.2 29.4 17.9 45 8.5 W 24 33 13 18 1007.6 1007.6 0.0
09/07:30pm 32.1 29.5 16.8 40 9.7 W 26 33 14 18 1007.3 1007.3 0.0
09/07:00pm 33.4 29.7 14.9 32 11.5 W 28 37 15 20 1007.0 1007.0 0.0
09/06:30pm 34.8 29.3 12.5 26 13.4 W 33 46 18 25 1006.6 1006.6 0.0
09/06:00pm 36.6 30.8 11.4 22 15.0 W 33 41 18 22 1006.3 1006.3 0.0
09/05:30pm 37.9 32.0 12.5 22 15.4 WNW 35 44 19 24 1006.2 1006.2 0.0
09/05:00pm 38.9 32.8 11.9 20 16.4 WNW 35 43 19 23 1006.1 1006.1 0.0
09/04:30pm 40.0 32.1 6.4 13 18.8 WNW 37 46 20 25 1006.0 1006.0 0.0
09/04:00pm 40.4 32.5 4.3 11 19.7 WNW 35 44 19 24 1005.9 1005.9 0.0
09/03:30pm 40.5 34.0 8.8 15 18.4 WNW 33 43 18 23 1006.1 1006.1 0.0
09/03:00pm 41.9 35.6 8.9 14 19.4 WNW 32 39 17 21 1006.3 1006.3 0.0
09/02:30pm 41.5 35.4 9.6 15 18.8 WNW 32 39 17 21 1006.5 1006.5 0.0
09/02:00pm 41.3 35.3 8.5 14 19.1 NW 30 37 16 20 1006.7 1006.7 0.0
09/01:30pm 41.3 36.4 8.5 14 19.1 NW 24 33 13 18 1007.0 1007.0 0.0
09/01:00pm 41.7 35.8 3.9 10 20.6 NW 24 37 13 20 1007.2 1007.2 0.0
09/12:30pm 42.9 37.2 4.8 10 21.1 NNW 24 37 13 20 1007.3 1007.3 0.0
09/12:00pm 42.5 38.9 3.0 9 21.4 NNE 11 17 6 9 1007.8 1007.8 0.0
09/11:30am 41.9 39.0 2.6 9 21.0 SW 7 20 4 11 1008.3 1008.3 0.0
09/11:00am 41.9 39.2 2.6 9 21.1 SE 6 13 3 7 1008.7 1008.7 0.0
09/10:30am 41.1 37.0 2.0 9 20.6 SE 13 20 7 11 1009.2 1009.2 0.0
09/10:00am 40.5 36.9 3.0 10 20.1 SE 11 24 6 13 1009.6 1009.6 0.0
09/09:30am 39.9 35.5 2.5 10 19.8 SE 15 26 8 14 1009.8 1009.8 0.0
09/09:00am 39.6 34.7 2.3 10 19.6 SE 17 24 9 13 1010.0 1010.0 0.0
09/08:30am 38.3 34.5 3.9 12 18.4 SE 13 20 7 11 1010.1 1010.1 0.0
09/08:00am 36.3 33.2 3.5 13 17.3 SSE 9 17 5 9 1010.1 1010.1 0.0
09/07:30am 34.8 32.2 4.4 15 16.1 SSW 7 11 4 6 1009.9 1009.9 0.0
09/07:00am 33.5 31.3 5.1 17 15.1 SW 6 7 3 4 1009.7 1009.7 0.0
09/06:30am 29.7 27.7 6.4 23 12.4 W 6 7 3 4 1009.4 1009.4 0.0
09/06:00am 26.6 24.3 5.5 26 10.9 W 7 9 4 5 1009.1 1009.1 0.0
09/05:30am 24.9 23.6 4.1 26 10.3 CALM 0 0 0 0 1008.7 1008.7 0.0
09/05:00am 27.5 23.8 4.5 23 11.7 SW 13 15 7 8 1008.2 1008.2 0.0
09/04:30am 28.9 24.9 5.1 22 12.3 SW 15 15 8 8 1007.8 1007.8 0.0
09/04:00am 29.8 25.5 5.1 21 12.9 SW 17 19 9 10 1007.6 1007.6 0.0
09/03:30am 30.2 26.0 5.5 21 13.0 SW 17 20 9 11 1007.4 1007.4 0.0
09/03:00am 30.0 26.1 5.3 21 12.9 SW 15 17 8 9 1007.5 1007.5 0.0
09/02:30am 31.4 27.0 5.0 19 13.8 SW 17 22 9 12 1007.3 1007.3 0.0
09/02:00am 31.8 27.5 5.3 19 14.0 SW 17 20 9 11 1007.3 1007.3 0.0
09/01:30am 32.2 28.0 5.7 19 14.1 SW 17 20 9 11 1007.5 1007.5 0.0
09/01:00am 32.9 28.3 5.5 18 14.6 SW 19 24 10 13 1007.8 1007.8 0.0
09/12:30am 33.4 28.5 5.0 17 15.1 SW 20 26 11 14 1008.0 1008.0 0.0
09/12:00am 33.8 28.8 4.5 16 15.5 SW 20 28 11 15 1008.2 1008.2 0.0
 
Date/Time
WST
Temp
°C
App
Temp
°C
Dew
Point
°C
Rel
Hum
%
Delta-T
°C
Wind Press
QNH
hPa
Press
MSL
hPa
Rain since
9am
mm
Dir  Spd
km/h
Gust
km/h
Spd
kts
Gust
kts
08/11:30pm 34.3 29.0 4.9 16 15.6 SW 22 28 12 15 1008.3 1008.3 0.0
08/11:00pm 34.0 30.1 9.3 22 14.1 WSW 20 28 11 15 1008.5 1008.5 0.0
08/10:30pm 34.2 30.8 12.5 27 13.0 WSW 22 30 12 16 1008.5 1008.5 0.0
08/10:00pm 34.3 30.9 13.7 29 12.6 WSW 24 33 13 18 1008.5 1008.5 0.0
08/09:30pm 34.8 30.8 13.0 26 13.2 WSW 26 32 14 17 1008.3 1008.3 0.0
08/09:00pm 35.5 31.0 12.5 25 13.9 WSW 28 37 15 20 1008.1 1008.1 0.0
08/08:30pm 36.3 30.6 11.9 23 14.6 WSW 33 43 18 23 1007.8 1007.8 0.0
08/08:00pm 36.6 31.9 12.1 23 14.7 W 28 39 15 21 1007.5 1007.5 0.0
08/07:30pm 37.1 31.8 13.2 24 14.6 W 33 43 18 23 1007.1 1007.1 0.0
08/07:00pm 37.8 33.0 11.7 21 15.7 W 28 41 15 22 1006.8 1006.8 0.0
08/06:30pm 40.9 35.0 1.8 9 20.6 SW 22 32 12 17 1006.2 1006.2 0.0
08/06:00pm 42.1 35.7 1.1 8 21.5 SW 24 33 13 18 1005.8 1005.8 0.0
08/05:30pm 40.7 37.1 14.1 21 16.7 W 26 39 14 21 1005.4 1005.4 0.0
08/05:00pm 41.4 36.8 12.3 18 17.9 W 28 41 15 22 1005.5 1005.5 0.0
08/04:32pm 43.1 37.4 4.9 10 21.3 WNW 24 46 13 25 1005.4 1005.4 0.0
08/04:30pm 42.5 38.4 11.4 16 18.9 W 24 46 13 25 1005.5 1005.5 0.0
08/04:28pm 42.6 39.3 11.5 16 18.9 W 20 43 11 23 1005.5 1005.5 0.0
08/04:00pm 43.9 40.7 0.5 7 22.8 SSW 7 15 4 8 1005.6 1005.6 0.0
08/03:30pm 44.1 39.4 0.7 7 22.8 SSW 15 22 8 12 1005.8 1005.8 0.0
08/03:00pm 44.7 39.3 1.1 7 23.2 WSW 19 37 10 20 1006.2 1006.2 0.0
08/02:30pm 43.3 39.6 0.1 7 22.4 SSW 9 13 5 7 1006.5 1006.5 0.0
08/02:00pm 44.3 38.6 0.8 7 23.0 SSW 20 37 11 20 1006.8 1006.8 0.0
08/01:30pm 44.1 38.4 0.7 7 22.8 SW 20 33 11 18 1007.4 1007.4 0.0
08/01:00pm 43.6 39.1 2.1 8 22.3 W 15 24 8 13 1007.7 1007.7 0.0
08/12:30pm 43.9 39.4 2.4 8 22.4 S 15 28 8 15 1008.2 1008.2 0.0
08/12:00pm 42.3 37.3 1.2 8 21.6 SSW 17 26 9 14 1008.6 1008.6 0.0
08/11:30am 42.5 37.4 3.0 9 21.3 S 19 32 10 17 1009.1 1009.1 0.0
08/11:00am 41.8 36.0 2.5 9 21.0 S 22 33 12 18 1009.6 1009.6 0.0
08/10:30am 41.4 35.2 2.2 9 20.8 SSW 24 35 13 19 1009.9 1009.9 0.0
08/10:00am 40.3 34.2 2.8 10 20.0 SSW 24 33 13 18 1010.2 1010.2 0.0
08/09:30am 40.4 34.7 2.9 10 20.0 SSW 22 30 12 16 1010.3 1010.3 0.0
08/09:00am 39.2 33.0 2.0 10 19.5 S 24 32 13 17 1010.4 1010.4 0.0
08/08:30am 37.7 30.4 2.2 11 18.5 S 30 39 16 21 1010.4 1010.4 0.0
08/08:00am 37.0 30.9 2.9 12 17.9 S 24 32 13 17 1010.4 1010.4 0.0
08/07:30am 35.6 30.7 5.0 15 16.4 S 20 32 11 17 1010.3 1010.3 0.0
08/07:00am 33.5 30.1 5.9 18 14.9 SSW 13 17 7 9 1010.2 1010.2 0.0
08/06:30am 31.8 29.0 5.3 19 14.0 SW 9 11 5 6 1010.0 1010.0 0.0
08/06:00am 29.1 25.9 5.2 22 12.4 SW 11 13 6 7 1009.6 1009.6 0.0
08/05:30am 28.3 24.7 5.2 23 11.9 SW 13 15 7 8 1009.2 1009.2 0.0
08/05:00am 29.0 24.7 5.1 22 12.4 SW 17 19 9 10 1008.7 1008.7 0.0
08/04:30am 29.5 25.4 6.2 23 12.3 SW 17 20 9 11 1008.3 1008.3 0.0
08/04:00am 29.8 25.8 6.5 23 12.4 SW 17 20 9 11 1008.0 1008.0 0.0
08/03:30am 30.0 26.0 6.6 23 12.5 SW 17 20 9 11 1007.8 1007.8 0.0
08/03:00am 30.8 26.6 7.3 23 12.8 SW 19 24 10 13 1007.6 1007.6 0.0
08/02:30am 31.0 27.2 7.5 23 12.8 SW 17 22 9 12 1007.6 1007.6 0.0
08/02:00am 30.9 27.2 8.0 24 12.6 SW 17 20 9 11 1007.7 1007.7 0.0
08/01:30am 30.7 27.1 8.4 25 12.3 SW 17 19 9 10 1007.8 1007.8 0.0
08/01:00am 31.0 27.1 9.3 26 12.2 SW 20 26 11 14 1008.0 1008.0 0.0
08/12:30am 30.8 27.7 12.2 32 10.9 SW 20 24 11 13 1008.2 1008.2 0.0
08/12:00am 30.7 28.3 14.3 36 10.0 WSW 20 26 11 14 1008.3 1008.3 0.0
 
Date/Time
WST
Temp
°C
App
Temp
°C
Dew
Point
°C
Rel
Hum
%
Delta-T
°C
Wind Press
QNH
hPa
Press
MSL
hPa
Rain since
9am
mm
Dir  Spd
km/h
Gust
km/h
Spd
kts
Gust
kts
07/11:30pm 30.5 28.3 16.9 44 8.6 WSW 24 30 13 16 1008.4 1008.4 0.0
07/11:00pm 30.9 28.2 17.6 45 8.5 WSW 28 35 15 19 1008.6 1008.6 0.0
07/10:30pm 30.9 28.3 17.9 45 8.3 WSW 28 35 15 19 1008.7 1008.7 0.0
07/10:00pm 31.1 27.6 17.4 44 8.7 WSW 32 41 17 22 1008.7 1008.7 0.0
07/09:30pm 31.5 27.4 15.9 39 9.7 W 32 41 17 22 1008.6 1008.6 0.0
07/09:00pm 31.6 27.9 15.1 36 10.2 W 28 39 15 21 1008.5 1008.5 0.0
07/08:30pm 32.0 27.1 14.2 34 10.8 W 33 46 18 25 1008.4 1008.4 0.0
07/08:00pm 32.8 27.1 12.9 29 11.9 W 35 43 19 23 1008.1 1008.1 0.0
07/07:30pm 33.5 27.8 13.0 29 12.3 W 35 46 19 25 1007.9 1007.9 0.0
07/07:00pm 34.0 27.9 11.8 26 13.2 W 35 44 19 24 1007.5 1007.5 0.0
07/06:30pm 34.1 28.0 13.0 28 12.7 WNW 37 48 20 26 1007.3 1007.3 0.0
07/06:00pm 35.3 28.8 12.9 26 13.6 WNW 39 48 21 26 1007.0 1007.0 0.0
07/05:30pm 36.8 28.3 8.6 18 16.1 WNW 43 52 23 28 1006.7 1006.7 0.0
07/05:00pm 37.7 30.4 10.1 19 16.2 WNW 39 52 21 28 1006.7 1006.7 0.0
07/04:30pm 36.7 30.6 14.1 26 14.0 NW 39 50 21 27 1006.7 1006.7 0.0
07/04:00pm 37.4 31.5 14.7 26 14.2 NW 39 54 21 29 1006.8 1006.8 0.0
07/03:30pm 37.5 31.4 14.1 24 14.5 NW 39 48 21 26 1006.8 1006.8 0.0
07/03:00pm 37.3 31.6 16.3 29 13.4 WNW 41 50 22 27 1007.1 1007.1 0.0
07/02:30pm 37.2 31.9 16.2 29 13.4 NW 39 52 21 28 1007.3 1007.3 0.0
07/02:00pm 38.0 32.4 14.5 24 14.7 NW 37 48 20 26 1007.8 1007.8 0.0
07/01:30pm 38.8 33.5 13.2 21 15.7 NW 33 43 18 23 1008.2 1008.2 0.0

Other formats

Comma delimited format used in spreadsheet applications
http://www.bom.gov.au/fwo/IDW60801/IDW60801.94308.axf

JavaScript Object Notation format (JSON) in row-major order
http://www.bom.gov.au/fwo/IDW60801/IDW60801.94308.json

Data quality

Most of these data are generated automatically and are frequently updated. Quality checks on data are not normally performed. It is possible for incorrect values to appear. Refer to information at About Latest Weather Observations and please check the disclaimer before using these data.